Time;durP1;ratioP1;P1;durP2;ratioP2;P2;SDS_P1;SDS_P2;PMS_P1;PMS_P2;Temp;Humidity;BMP_temperature;BMP_pressure;BME280_temperature;BME280_humidity;BME280_pressure;Samples;Min_cycle;Max_cycle;Signal;HPM_P1;HPM_P2
2022/03/04 00:01:00;;;;;;;10.90;6.97;;;8.80;1.70;;;;;;5034395;28;20119;-69
2022/03/04 00:03:25;;;;;;;9.65;5.70;;;8.80;2.50;;;;;;5034532;28;20081;-69
2022/03/04 00:05:51;;;;;;;8.45;6.88;;;8.80;1.80;;;;;;5034320;28;20045;-69
2022/03/04 00:08:18;;;;;;;8.40;6.70;;;8.80;2.10;;;;;;5034665;28;20045;-69
2022/03/04 00:10:44;;;;;;;9.88;6.95;;;8.80;3.30;;;;;;5034805;28;20073;-69
2022/03/04 00:13:10;;;;;;;9.48;7.20;;;8.80;1.00;;;;;;5034166;28;20071;-69
2022/03/04 00:15:36;;;;;;;7.57;6.72;;;8.80;3.00;;;;;;5034308;28;20500;-69
2022/03/04 00:18:02;;;;;;;9.57;6.45;;;8.80;5.70;;;;;;5034462;28;20033;-69
2022/03/04 00:20:27;;;;;;;9.63;7.15;;;8.90;1.60;;;;;;5034674;28;20042;-69
2022/03/04 00:22:53;;;;;;;9.85;6.85;;;8.80;1.00;;;;;;5034643;28;20179;-69
2022/03/04 00:25:19;;;;;;;11.57;6.85;;;8.80;3.00;;;;;;5034125;28;20048;-69
2022/03/04 00:27:46;;;;;;;10.43;6.75;;;8.90;1.20;;;;;;5033981;28;20034;-69
2022/03/04 00:30:12;;;;;;;11.40;6.75;;;8.90;1.00;;;;;;5034125;28;20033;-69
2022/03/04 00:32:39;;;;;;;9.57;6.72;;;8.80;1.00;;;;;;5034161;28;20073;-69
2022/03/04 00:35:07;;;;;;;8.88;6.50;;;8.80;1.20;;;;;;5035024;28;20033;-69
2022/03/04 00:37:33;;;;;;;9.77;6.78;;;8.80;1.60;;;;;;5034280;28;20036;-69
2022/03/04 00:39:59;;;;;;;11.07;6.70;;;8.80;1.00;;;;;;5034868;28;20480;-69
2022/03/04 00:42:27;;;;;;;7.43;5.65;;;8.90;1.00;;;;;;5033974;28;20129;-69
2022/03/04 00:44:53;;;;;;;9.18;6.72;;;8.80;1.00;;;;;;5034392;28;20401;-69
2022/03/04 00:47:19;;;;;;;13.55;6.78;;;8.70;4.80;;;;;;5034207;28;20087;-69
2022/03/04 00:49:45;;;;;;;8.02;6.05;;;8.70;12.00;;;;;;5034522;28;20501;-69
2022/03/04 00:52:10;;;;;;;11.27;7.22;;;8.70;6.10;;;;;;5034132;28;20124;-69
2022/03/04 00:54:36;;;;;;;8.82;6.45;;;8.80;5.70;;;;;;5034698;28;20049;-69
2022/03/04 00:57:02;;;;;;;8.60;6.72;;;8.70;2.50;;;;;;5034160;28;20515;-69
2022/03/04 00:59:28;;;;;;;6.97;6.25;;;8.70;4.20;;;;;;5034230;28;20560;-69
2022/03/04 01:01:54;;;;;;;11.63;6.20;;;8.80;4.60;;;;;;5033630;28;20144;-69
2022/03/04 01:04:20;;;;;;;9.95;6.35;;;8.80;2.70;;;;;;5035661;28;20099;-69
2022/03/04 01:06:46;;;;;;;9.27;6.15;;;8.80;1.10;;;;;;5037745;28;20179;-69
2022/03/04 01:09:12;;;;;;;11.55;6.35;;;8.80;1.60;;;;;;5037512;28;20044;-69
2022/03/04 01:11:37;;;;;;;9.65;7.20;;;8.70;2.10;;;;;;5038093;28;20049;-69
2022/03/04 01:14:05;;;;;;;8.30;6.00;;;8.70;4.90;;;;;;5037745;28;20060;-69
2022/03/04 01:16:31;;;;;;;9.43;7.10;;;8.70;8.20;;;;;;5037198;28;20119;-69
2022/03/04 01:18:57;;;;;;;7.22;5.78;;;8.70;6.80;;;;;;5037647;28;20428;-69
2022/03/04 01:21:23;;;;;;;9.27;7.22;;;8.70;9.10;;;;;;5037963;28;20047;-69
2022/03/04 01:23:48;;;;;;;9.27;6.47;;;8.70;8.80;;;;;;5037537;28;20454;-69
2022/03/04 01:26:14;;;;;;;9.05;6.25;;;8.80;6.60;;;;;;5037586;28;20045;-69
2022/03/04 01:28:41;;;;;;;10.05;6.70;;;8.80;5.30;;;;;;5037171;28;20043;-69
2022/03/04 01:31:10;;;;;;;9.85;6.90;;;9.00;1.00;;;;;;5037416;28;20053;-69
2022/03/04 01:33:36;;;;;;;9.30;6.95;;;9.30;1.00;;;;;;5037300;28;20034;-69
2022/03/04 01:36:03;;;;;;;9.60;6.95;;;9.50;1.00;;;;;;5037611;28;20091;-69
2022/03/04 01:38:29;;;;;;;8.93;6.32;;;9.70;1.00;;;;;;5037299;28;20095;-69
2022/03/04 01:40:54;;;;;;;6.65;6.00;;;9.80;1.00;;;;;;5037542;28;20513;-69
2022/03/04 01:43:20;;;;;;;12.65;6.88;;;10.00;1.00;;;;;;5037166;28;20131;-69
2022/03/04 01:45:46;;;;;;;9.15;5.90;;;10.10;1.00;;;;;;5037006;28;20044;-69
2022/03/04 01:48:13;;;;;;;9.02;6.22;;;10.10;1.00;;;;;;5037112;28;20033;-69
2022/03/04 01:50:39;;;;;;;8.18;6.22;;;10.10;1.00;;;;;;5037653;28;20480;-69
2022/03/04 01:53:05;;;;;;;8.73;6.70;;;10.10;1.00;;;;;;5037037;28;20045;-69
2022/03/04 01:55:31;;;;;;;7.65;5.97;;;10.10;1.00;;;;;;5036672;28;20049;-69
2022/03/04 01:57:57;;;;;;;6.95;5.68;;;10.20;1.00;;;;;;5036680;28;20033;-69
2022/03/04 02:00:23;;;;;;;7.95;5.63;;;10.20;1.00;;;;;;5018889;28;20041;-69
2022/03/04 02:02:50;;;;;;;7.78;5.50;;;10.20;1.00;;;;;;5037497;28;20052;-69
2022/03/04 02:05:17;;;;;;;6.90;5.40;;;10.20;1.00;;;;;;5036741;28;20575;-69
2022/03/04 02:07:44;;;;;;;7.75;5.30;;;10.20;1.00;;;;;;5037147;28;20063;-69
2022/03/04 02:10:10;;;;;;;7.07;5.35;;;10.30;1.00;;;;;;5037298;28;20072;-69
2022/03/04 02:12:37;;;;;;;10.10;6.00;;;10.30;1.00;;;;;;5036641;28;20446;-69
2022/03/04 02:15:06;;;;;;;6.45;5.45;;;10.30;1.00;;;;;;5036708;28;20065;-69
2022/03/04 02:17:32;;;;;;;7.63;5.53;;;10.30;1.00;;;;;;5036960;28;20037;-69
2022/03/04 02:19:59;;;;;;;5.70;5.05;;;10.30;1.00;;;;;;5036711;28;20507;-69
2022/03/04 02:22:24;;;;;;;6.15;5.35;;;10.30;1.00;;;;;;5036639;28;20041;-69
2022/03/04 02:24:50;;;;;;;7.68;5.70;;;10.30;1.00;;;;;;5036967;28;20049;-69
2022/03/04 02:27:16;;;;;;;7.55;5.75;;;10.30;1.00;;;;;;5036663;28;20392;-69
2022/03/04 02:29:42;;;;;;;8.90;5.85;;;10.30;1.00;;;;;;5036368;28;20038;-69
2022/03/04 02:32:08;;;;;;;8.10;5.20;;;10.30;1.00;;;;;;5036284;28;20125;-69
2022/03/04 02:34:34;;;;;;;6.55;5.47;;;10.30;1.00;;;;;;5036573;28;20043;-69
2022/03/04 02:37:00;;;;;;;7.40;5.28;;;10.30;1.00;;;;;;5036481;28;20124;-69
2022/03/04 02:39:26;;;;;;;7.85;5.43;;;10.20;1.00;;;;;;5037065;28;20156;-69
2022/03/04 02:41:52;;;;;;;6.93;5.35;;;10.20;1.00;;;;;;5036441;28;20496;-69
2022/03/04 02:44:17;;;;;;;7.60;5.25;;;10.20;1.00;;;;;;5036204;28;20045;-69
2022/03/04 02:46:43;;;;;;;6.05;5.15;;;10.20;1.00;;;;;;5018568;28;20037;-69
2022/03/04 02:49:10;;;;;;;7.43;5.30;;;10.20;1.00;;;;;;5036254;28;20045;-69
2022/03/04 02:51:37;;;;;;;6.63;5.18;;;10.20;1.00;;;;;;5035815;28;20037;-69
2022/03/04 02:54:03;;;;;;;7.15;5.50;;;10.20;1.00;;;;;;5036054;28;20048;-69
2022/03/04 02:56:29;;;;;;;5.75;5.15;;;10.10;1.00;;;;;;5036269;28;20037;-69
2022/03/04 02:58:55;;;;;;;5.63;4.93;;;10.10;1.00;;;;;;5036334;28;20169;-69
2022/03/04 03:01:21;;;;;;;5.88;5.32;;;10.10;1.00;;;;;;5036004;28;20048;-69
2022/03/04 03:03:47;;;;;;;7.95;5.60;;;10.00;1.00;;;;;;5036252;28;20045;-69
2022/03/04 03:06:13;;;;;;;8.30;5.22;;;10.00;1.00;;;;;;5035897;28;20044;-69
2022/03/04 03:08:39;;;;;;;6.63;5.35;;;10.00;1.00;;;;;;5018072;28;20033;-69
2022/03/04 03:11:04;;;;;;;7.57;5.88;;;10.00;1.00;;;;;;5036469;28;20033;-69
2022/03/04 03:13:30;;;;;;;9.23;5.68;;;9.90;1.00;;;;;;5035411;28;20037;-69
2022/03/04 03:15:56;;;;;;;10.98;6.20;;;9.90;1.00;;;;;;5035281;28;20052;-69
2022/03/04 03:18:22;;;;;;;6.47;5.18;;;9.80;1.00;;;;;;5035717;28;20041;-69
2022/03/04 03:20:48;;;;;;;8.07;5.60;;;9.80;1.00;;;;;;5035918;28;20124;-69
2022/03/04 03:23:14;;;;;;;6.38;5.72;;;9.80;1.00;;;;;;5017807;28;20033;-69
2022/03/04 03:25:40;;;;;;;7.35;5.50;;;9.80;1.00;;;;;;5035520;28;20029;-69
2022/03/04 03:28:06;;;;;;;8.55;5.55;;;9.80;1.00;;;;;;5034801;28;20090;-69
2022/03/04 03:30:32;;;;;;;7.18;5.93;;;9.80;1.00;;;;;;5035006;28;20030;-69
2022/03/04 03:32:58;;;;;;;7.30;5.32;;;9.70;1.00;;;;;;5035133;28;20377;-69
2022/03/04 03:35:24;;;;;;;7.68;6.05;;;9.70;1.00;;;;;;5035347;28;20037;-69
2022/03/04 03:37:50;;;;;;;6.63;5.22;;;9.70;1.00;;;;;;5035092;28;20052;-69
2022/03/04 03:40:16;;;;;;;6.32;5.00;;;9.70;1.00;;;;;;5035319;28;20037;-69
2022/03/04 03:42:43;;;;;;;7.03;5.30;;;9.70;1.00;;;;;;5035334;28;20388;-69
2022/03/04 03:45:11;;;;;;;7.13;5.63;;;9.70;1.00;;;;;;5034787;28;20415;-69
2022/03/04 03:47:38;;;;;;;10.85;6.22;;;9.70;1.00;;;;;;5034933;28;20168;-69
2022/03/04 03:50:07;;;;;;;10.63;6.22;;;9.70;1.00;;;;;;5034871;28;20065;-69
2022/03/04 03:52:32;;;;;;;9.95;6.80;;;9.60;1.00;;;;;;5034967;28;20053;-69
2022/03/04 03:54:58;;;;;;;9.52;6.75;;;9.60;1.00;;;;;;5035053;28;20048;-69
2022/03/04 03:57:25;;;;;;;8.13;6.47;;;9.60;1.00;;;;;;5034744;28;20067;-69
2022/03/04 03:59:51;;;;;;;9.00;6.03;;;9.60;1.00;;;;;;5034921;28;20045;-69
2022/03/04 04:02:17;;;;;;;8.75;6.05;;;9.70;1.00;;;;;;5034306;28;20435;-69
2022/03/04 04:04:44;;;;;;;8.65;6.50;;;9.60;1.00;;;;;;5034663;28;20037;-69
2022/03/04 04:07:11;;;;;;;7.63;6.70;;;9.60;1.00;;;;;;5034449;28;20041;-69
2022/03/04 04:09:37;;;;;;;10.77;6.13;;;9.60;1.00;;;;;;5034939;28;20049;-69
2022/03/04 04:12:04;;;;;;;9.77;7.10;;;9.70;1.00;;;;;;5034953;28;20396;-69
2022/03/04 04:14:30;;;;;;;8.20;6.53;;;9.70;1.00;;;;;;5034086;28;20041;-69
2022/03/04 04:16:56;;;;;;;8.75;6.80;;;9.60;1.00;;;;;;5034248;28;20052;-69
2022/03/04 04:19:23;;;;;;;10.13;7.70;;;9.60;1.00;;;;;;5034496;28;20037;-69
2022/03/04 04:21:50;;;;;;;13.02;7.75;;;9.50;1.00;;;;;;5034128;28;20128;-69
2022/03/04 04:24:16;;;;;;;9.55;7.35;;;9.50;1.00;;;;;;5034451;28;20064;-69
2022/03/04 04:26:43;;;;;;;8.40;6.82;;;9.50;1.00;;;;;;5034642;28;20033;-69
2022/03/04 04:29:09;;;;;;;10.80;7.10;;;9.40;1.00;;;;;;5034502;28;20120;-69
2022/03/04 04:31:35;;;;;;;9.98;7.75;;;9.40;1.00;;;;;;5016636;28;20432;-69
2022/03/04 04:34:02;;;;;;;8.40;7.50;;;9.40;1.00;;;;;;5034623;28;20037;-69
2022/03/04 04:36:28;;;;;;;10.48;7.38;;;9.40;1.00;;;;;;5034454;28;20144;-69
2022/03/04 04:38:55;;;;;;;7.50;6.68;;;9.40;1.00;;;;;;5035287;28;20041;-69
2022/03/04 04:41:21;;;;;;;8.55;6.20;;;9.50;1.00;;;;;;5038573;28;20053;-69
2022/03/04 04:43:47;;;;;;;7.55;6.15;;;9.50;1.00;;;;;;5038068;28;20034;-69
2022/03/04 04:46:13;;;;;;;6.93;6.10;;;9.50;1.00;;;;;;5038126;28;20041;-69
2022/03/04 04:48:40;;;;;;;8.27;6.78;;;9.60;1.00;;;;;;5037937;28;20069;-69
2022/03/04 04:51:06;;;;;;;8.35;6.53;;;9.60;1.00;;;;;;5038261;28;20091;-69
2022/03/04 04:53:32;;;;;;;9.30;6.63;;;9.60;1.00;;;;;;5037880;28;20038;-69
2022/03/04 04:55:59;;;;;;;7.22;6.25;;;9.60;1.00;;;;;;5038210;28;20099;-69
2022/03/04 04:58:25;;;;;;;9.20;7.13;;;9.60;1.00;;;;;;5037977;28;20034;-69
2022/03/04 05:00:54;;;;;;;7.82;6.50;;;9.60;1.00;;;;;;5037296;28;20045;-69
2022/03/04 05:03:23;;;;;;;8.13;6.78;;;9.60;1.00;;;;;;5036809;28;20037;-69
2022/03/04 05:05:50;;;;;;;9.25;7.05;;;9.50;1.00;;;;;;5036920;28;20045;-69
2022/03/04 05:08:17;;;;;;;7.63;6.82;;;9.50;1.00;;;;;;5036904;28;20037;-69
2022/03/04 05:10:43;;;;;;;9.07;6.40;;;9.50;1.00;;;;;;5036967;28;20036;-69
2022/03/04 05:13:09;;;;;;;7.60;6.20;;;9.60;1.00;;;;;;5036935;28;20029;-69
2022/03/04 05:15:35;;;;;;;8.05;6.18;;;9.50;1.00;;;;;;5036302;28;20128;-69
2022/03/04 05:18:01;;;;;;;8.02;6.90;;;9.50;1.00;;;;;;5036728;28;20044;-69
2022/03/04 05:20:27;;;;;;;11.02;6.65;;;9.50;1.00;;;;;;5037040;28;20045;-69
2022/03/04 05:22:52;;;;;;;9.00;6.70;;;9.60;1.00;;;;;;5036609;28;20526;-69
2022/03/04 05:25:18;;;;;;;6.93;6.20;;;9.60;1.00;;;;;;5036355;28;20523;-69
2022/03/04 05:27:45;;;;;;;7.78;6.68;;;9.50;1.00;;;;;;5036270;28;20037;-69
2022/03/04 05:30:11;;;;;;;6.78;5.88;;;9.50;1.00;;;;;;5036781;28;20033;-69
2022/03/04 05:32:37;;;;;;;8.65;6.50;;;9.50;1.00;;;;;;5036342;28;20045;-69
2022/03/04 05:35:04;;;;;;;9.32;6.90;;;9.50;1.00;;;;;;5036233;28;20095;-69
2022/03/04 05:37:30;;;;;;;11.15;7.30;;;9.50;1.00;;;;;;5036277;28;20103;-69
2022/03/04 05:39:56;;;;;;;8.73;6.95;;;9.60;1.00;;;;;;5037004;28;20095;-69
2022/03/04 05:42:22;;;;;;;8.70;7.03;;;9.50;1.00;;;;;;5036004;28;20045;-69
2022/03/04 05:44:48;;;;;;;8.18;7.10;;;9.50;1.00;;;;;;5036260;28;20393;-69
2022/03/04 05:47:14;;;;;;;8.30;7.28;;;9.50;1.00;;;;;;5036321;28;20041;-69
2022/03/04 05:49:40;;;;;;;8.35;6.72;;;9.50;1.00;;;;;;5035872;28;20049;-69
2022/03/04 05:52:06;;;;;;;8.30;7.43;;;9.40;1.00;;;;;;5036096;28;20073;-69
2022/03/04 05:54:32;;;;;;;8.27;6.63;;;9.40;1.00;;;;;;5035806;28;20037;-69
2022/03/04 05:56:59;;;;;;;7.88;6.75;;;9.40;1.00;;;;;;5035870;28;20120;-69
2022/03/04 05:59:25;;;;;;;7.65;6.43;;;9.40;1.00;;;;;;5036534;28;20049;-69
2022/03/04 06:01:51;;;;;;;7.72;6.93;;;9.40;1.00;;;;;;4989462;28;1338026;-69
2022/03/04 06:04:17;;;;;;;8.18;6.03;;;9.40;1.00;;;;;;5036478;28;20049;-69
2022/03/04 06:06:43;;;;;;;7.13;5.65;;;9.40;1.00;;;;;;5037108;28;20072;-69
2022/03/04 06:09:09;;;;;;;8.20;6.05;;;9.40;1.00;;;;;;5036400;28;20424;-69
2022/03/04 06:11:35;;;;;;;6.60;5.53;;;9.40;1.00;;;;;;5036553;28;20041;-69
2022/03/04 06:14:01;;;;;;;7.57;5.70;;;9.40;1.00;;;;;;5036898;28;20116;-69
2022/03/04 06:16:27;;;;;;;6.82;5.45;;;9.40;1.00;;;;;;5036087;28;20397;-69
2022/03/04 06:18:54;;;;;;;8.95;5.35;;;9.40;1.00;;;;;;5037044;28;20041;-69
2022/03/04 06:21:20;;;;;;;5.72;5.13;;;9.50;1.00;;;;;;5035734;28;20057;-69
2022/03/04 06:23:45;;;;;;;5.40;4.85;;;9.40;1.00;;;;;;5036180;28;20049;-69
2022/03/04 06:26:11;;;;;;;5.90;5.30;;;9.50;1.00;;;;;;5036527;28;20052;-69
2022/03/04 06:28:37;;;;;;;5.82;5.22;;;9.50;1.00;;;;;;5036118;28;20530;-69
2022/03/04 06:31:03;;;;;;;6.65;5.30;;;9.50;1.00;;;;;;5035629;28;20128;-69
2022/03/04 06:33:32;;;;;;;6.97;5.60;;;9.50;1.00;;;;;;5036338;28;20061;-69
2022/03/04 06:36:06;;;;;;;6.10;5.43;;;9.50;1.00;;;;;;5036374;28;20041;-69
2022/03/04 06:38:35;;;;;;;6.03;5.43;;;9.40;1.00;;;;;;5036312;28;20033;-69
2022/03/04 06:41:01;;;;;;;6.35;5.75;;;9.50;1.00;;;;;;5036399;28;20052;-69
2022/03/04 06:43:27;;;;;;;6.05;4.82;;;9.50;1.00;;;;;;5036149;28;20041;-69
2022/03/04 06:45:53;;;;;;;7.10;5.30;;;9.50;1.00;;;;;;5035948;28;20041;-69
2022/03/04 06:48:21;;;;;;;7.28;5.05;;;9.50;1.00;;;;;;5035812;28;20040;-69
2022/03/04 06:50:48;;;;;;;7.05;5.38;;;9.50;1.00;;;;;;5035995;28;20068;-70
2022/03/04 06:53:14;;;;;;;6.72;5.55;;;9.50;1.00;;;;;;5035498;28;20052;-69
2022/03/04 06:55:40;;;;;;;8.68;6.15;;;9.50;1.00;;;;;;5035631;28;20041;-69
2022/03/04 06:58:06;;;;;;;6.20;5.53;;;9.50;1.00;;;;;;5035346;28;20060;-69
2022/03/04 07:00:31;;;;;;;5.82;5.22;;;9.50;1.00;;;;;;5036028;28;20065;-70
2022/03/04 07:02:58;;;;;;;5.50;5.00;;;9.60;1.00;;;;;;5029817;28;20128;-69
2022/03/04 07:05:24;;;;;;;6.82;5.15;;;9.60;1.00;;;;;;5035320;28;20489;-70
2022/03/04 07:07:51;;;;;;;5.55;4.85;;;9.50;1.00;;;;;;5035398;28;20048;-70
2022/03/04 07:10:17;;;;;;;6.10;5.32;;;9.60;1.00;;;;;;5032270;28;20041;-70
2022/03/04 07:12:43;;;;;;;5.72;5.07;;;9.60;1.00;;;;;;5025834;28;20496;-70
2022/03/04 07:15:09;;;;;;;7.18;5.65;;;9.70;1.00;;;;;;5035645;28;20029;-70
2022/03/04 07:17:35;;;;;;;7.78;6.40;;;9.70;1.00;;;;;;5035199;28;20073;-70
2022/03/04 07:20:02;;;;;;;5.28;4.78;;;9.70;1.00;;;;;;5035588;28;20053;-70
2022/03/04 07:22:28;;;;;;;6.38;5.28;;;9.60;1.00;;;;;;5035069;28;20079;-70
2022/03/04 07:24:55;;;;;;;5.80;4.82;;;9.60;1.00;;;;;;5034821;28;20029;-70
2022/03/04 07:27:21;;;;;;;6.35;5.78;;;9.60;1.00;;;;;;5035275;28;20041;-70
2022/03/04 07:29:47;;;;;;;8.15;5.53;;;9.60;1.00;;;;;;5034815;28;20516;-70
2022/03/04 07:32:13;;;;;;;6.78;6.03;;;9.70;1.00;;;;;;5034874;28;20075;-70
2022/03/04 07:34:39;;;;;;;6.20;5.60;;;9.70;1.00;;;;;;5034902;28;20096;-70
2022/03/04 07:37:05;;;;;;;9.18;8.15;;;9.80;1.00;;;;;;5035082;28;20045;-70
2022/03/04 07:39:31;;;;;;;14.13;11.52;;;9.80;1.00;;;;;;5034751;28;20029;-70
2022/03/04 07:41:57;;;;;;;8.20;5.72;;;9.90;1.00;;;;;;5034999;28;20057;-70
2022/03/04 07:44:24;;;;;;;9.50;7.78;;;9.80;1.00;;;;;;5034623;28;20120;-70
2022/03/04 07:46:49;;;;;;;13.57;10.95;;;9.90;1.00;;;;;;5034972;28;20041;-70
2022/03/04 07:49:15;;;;;;;9.73;8.07;;;9.80;1.00;;;;;;5030302;28;20160;-69
2022/03/04 07:51:41;;;;;;;11.75;8.25;;;9.80;1.00;;;;;;5014756;28;20068;-71
2022/03/04 07:54:07;;;;;;;11.75;8.15;;;9.80;1.00;;;;;;5015390;28;20073;-70
2022/03/04 07:56:34;;;;;;;8.18;7.13;;;9.80;1.00;;;;;;5033991;28;20037;-70
2022/03/04 07:58:59;;;;;;;8.38;5.90;;;9.80;1.00;;;;;;5025581;28;20034;-70
2022/03/04 08:01:27;;;;;;;4.93;4.43;;;9.80;1.00;;;;;;5014853;28;20184;-70
2022/03/04 08:03:53;;;;;;;5.55;4.57;;;9.80;1.00;;;;;;5030390;28;20033;-70
2022/03/04 08:06:19;;;;;;;5.18;4.72;;;10.00;1.00;;;;;;5020500;28;20045;-70
2022/03/04 08:08:44;;;;;;;8.93;7.45;;;10.00;1.00;;;;;;5034305;28;20030;-70
2022/03/04 08:11:10;;;;;;;6.13;5.53;;;10.00;1.00;;;;;;5033884;28;20045;-70
2022/03/04 08:13:36;;;;;;;4.22;3.83;;;10.00;1.00;;;;;;5034087;28;20401;-70
2022/03/04 08:16:03;;;;;;;6.72;6.03;;;10.10;1.00;;;;;;5034271;28;20034;-70
2022/03/04 08:18:29;;;;;;;6.25;5.70;;;10.20;1.00;;;;;;5029378;28;20088;-70
2022/03/04 08:20:55;;;;;;;6.03;4.90;;;10.20;1.00;;;;;;5022848;28;20057;-70
2022/03/04 08:23:21;;;;;;;6.00;4.97;;;10.30;1.00;;;;;;5034192;28;20071;-70
2022/03/04 08:25:49;;;;;;;6.97;6.28;;;10.30;1.00;;;;;;5018913;28;20052;-70
2022/03/04 08:28:15;;;;;;;5.22;4.65;;;10.30;1.00;;;;;;5014294;28;20176;-70
2022/03/04 08:30:41;;;;;;;5.97;4.82;;;10.40;1.00;;;;;;5014499;28;20041;-70
2022/03/04 08:33:07;;;;;;;4.85;4.35;;;10.50;1.00;;;;;;5014608;28;20096;-70
2022/03/04 08:35:33;;;;;;;5.90;4.40;;;10.50;1.00;;;;;;5014599;28;20049;-69
2022/03/04 08:38:00;;;;;;;6.18;5.22;;;10.60;1.00;;;;;;5013970;28;20042;-70
2022/03/04 08:40:26;;;;;;;6.63;4.90;;;10.50;1.00;;;;;;5022020;28;20555;-70
2022/03/04 08:42:52;;;;;;;6.38;5.18;;;10.60;1.00;;;;;;5034017;28;20054;-70
2022/03/04 08:45:18;;;;;;;5.63;5.07;;;10.50;1.00;;;;;;5034097;28;20033;-70
2022/03/04 08:47:44;;;;;;;6.22;5.45;;;10.60;1.00;;;;;;5033983;28;20069;-70
2022/03/04 08:50:12;;;;;;;6.20;4.97;;;10.60;1.00;;;;;;5014482;28;20030;-70
2022/03/04 08:52:38;;;;;;;5.78;4.72;;;10.60;1.00;;;;;;5033891;28;20080;-69
2022/03/04 08:55:07;;;;;;;5.70;4.97;;;10.70;1.00;;;;;;5033948;28;20061;-70
2022/03/04 08:57:33;;;;;;;5.47;4.95;;;10.70;1.00;;;;;;5034947;28;20033;-70
2022/03/04 08:59:59;;;;;;;5.72;4.88;;;10.80;1.00;;;;;;5017478;28;20026;-71
2022/03/04 09:02:25;;;;;;;6.93;5.20;;;10.90;1.00;;;;;;5023237;28;20049;-71
2022/03/04 09:04:51;;;;;;;5.90;5.30;;;10.90;1.00;;;;;;5017195;28;20104;-71
2022/03/04 09:07:17;;;;;;;5.22;4.68;;;11.00;1.00;;;;;;5014200;28;20050;-70
2022/03/04 09:09:43;;;;;;;5.85;4.68;;;11.30;1.00;;;;;;5015598;28;20485;-71
2022/03/04 09:12:09;;;;;;;6.35;5.13;;;11.40;1.00;;;;;;5014029;28;20052;-70
2022/03/04 09:14:36;;;;;;;6.47;5.18;;;11.00;1.00;;;;;;5016836;28;20115;-71
2022/03/04 09:17:02;;;;;;;6.45;5.10;;;11.20;1.00;;;;;;5019331;28;20564;-70
2022/03/04 09:19:30;;;;;;;5.85;5.03;;;11.30;1.00;;;;;;5030721;28;20042;-71
2022/03/04 09:21:56;;;;;;;6.25;4.70;;;11.30;1.00;;;;;;5014234;28;20054;-71
2022/03/04 09:24:22;;;;;;;5.80;4.63;;;11.10;1.00;;;;;;5022077;28;20041;-70
2022/03/04 09:26:48;;;;;;;5.13;4.63;;;11.10;1.00;;;;;;5029964;28;20496;-70
2022/03/04 09:29:15;;;;;;;5.00;4.40;;;11.10;1.00;;;;;;5036540;28;20083;-71
2022/03/04 09:31:40;;;;;;;5.55;5.00;;;11.20;1.00;;;;;;5383107;23;20032;-72
2022/03/04 09:34:07;;;;;;;6.63;5.70;;;11.30;1.00;;;;;;5012456;28;20046;-71
2022/03/04 09:36:33;;;;;;;6.15;5.50;;;11.40;1.00;;;;;;5036593;28;20099;-72
2022/03/04 09:38:59;;;;;;;5.88;5.00;;;11.50;1.00;;;;;;5047739;28;20061;-72
2022/03/04 09:41:26;;;;;;;7.15;6.13;;;11.30;1.00;;;;;;5055147;28;20116;-71
2022/03/04 09:43:54;;;;;;;13.65;11.98;;;11.40;1.00;;;;;;5044818;28;20043;-71
2022/03/04 09:46:21;;;;;;;5.70;4.78;;;11.40;1.00;;;;;;5023796;28;20042;-71
2022/03/04 09:48:49;;;;;;;6.05;5.35;;;11.50;1.00;;;;;;5036183;28;20095;-71
2022/03/04 09:51:15;;;;;;;4.35;3.95;;;11.60;1.00;;;;;;5034889;28;20047;-72
2022/03/04 09:53:41;;;;;;;9.82;6.60;;;11.60;1.00;;;;;;5034337;28;20047;-71
2022/03/04 09:56:07;;;;;;;5.53;4.88;;;11.80;1.00;;;;;;5034711;28;20140;-71
2022/03/04 09:58:33;;;;;;;6.95;6.22;;;11.70;1.00;;;;;;5034670;28;20255;-69
2022/03/04 10:00:59;;;;;;;9.68;8.50;;;11.80;1.00;;;;;;5035581;28;20041;-69
2022/03/04 10:03:31;;;;;;;5.88;4.88;;;11.70;1.00;;;;;;5034676;28;20034;-70
2022/03/04 10:06:00;;;;;;;10.77;9.43;;;11.70;1.00;;;;;;5034402;28;20038;-72
2022/03/04 10:08:26;;;;;;;5.80;5.25;;;11.60;1.00;;;;;;5031271;28;20033;-71
2022/03/04 10:10:54;;;;;;;6.32;4.82;;;11.60;1.00;;;;;;5034034;28;20053;-71
2022/03/04 10:13:43;;;;;;;5.00;4.28;;;11.50;1.00;;;;;;5033419;28;20041;-71
2022/03/04 10:16:10;;;;;;;4.90;3.97;;;11.60;1.00;;;;;;5032701;28;20115;-72
2022/03/04 10:18:36;;;;;;;6.88;5.07;;;11.60;1.00;;;;;;5033468;28;20037;-71
2022/03/04 10:21:02;;;;;;;7.65;4.18;;;11.50;1.00;;;;;;5032718;28;20407;-72
2022/03/04 10:23:27;;;;;;;6.38;4.50;;;11.50;1.00;;;;;;5034456;28;20860;-72
2022/03/04 10:25:56;;;;;;;5.10;3.85;;;11.50;1.00;;;;;;5034364;28;20718;-72
2022/03/04 10:28:24;;;;;;;4.30;3.90;;;11.50;1.00;;;;;;5033600;28;20056;-71
2022/03/04 10:30:52;;;;;;;5.07;4.50;;;11.50;1.00;;;;;;5047099;28;20071;-72
2022/03/04 10:33:26;;;;;;;11.57;7.80;;;11.50;1.00;;;;;;5034130;28;20045;-72
2022/03/04 10:36:07;;;;;;;7.25;5.72;;;11.60;1.00;;;;;;5037887;28;20048;-71
2022/03/04 10:38:33;;;;;;;5.90;4.65;;;11.80;1.00;;;;;;5041129;28;20097;-71
2022/03/04 10:41:00;;;;;;;8.18;7.28;;;11.90;1.00;;;;;;5048056;28;20037;-71
2022/03/04 10:43:31;;;;;;;324.33;250.68;;;11.80;1.00;;;;;;5041124;28;20041;-71
2022/03/04 10:46:03;;;;;;;181.90;143.07;;;11.60;1.00;;;;;;5035022;28;20037;-72
2022/03/04 10:48:30;;;;;;;11.90;10.73;;;11.70;1.00;;;;;;5037150;28;20037;-71
2022/03/04 10:50:59;;;;;;;358.90;280.98;;;11.70;1.00;;;;;;5033976;28;20064;-74
2022/03/04 10:53:29;;;;;;;419.15;291.48;;;12.00;1.00;;;;;;5040566;28;20029;-71
2022/03/04 10:55:57;;;;;;;38.22;29.13;;;12.10;1.00;;;;;;5044189;28;20040;-71
2022/03/04 10:58:35;;;;;;;16.83;12.75;;;12.10;1.00;;;;;;5039463;28;20040;-71
2022/03/04 11:01:09;;;;;;;14.07;10.88;;;12.10;1.00;;;;;;5048383;28;20045;-71
2022/03/04 11:03:36;;;;;;;6.72;6.05;;;11.90;1.00;;;;;;5037451;28;20037;-70
2022/03/04 11:06:08;;;;;;;5.28;4.07;;;11.90;1.00;;;;;;5037535;28;20092;-71
2022/03/04 11:08:34;;;;;;;7.53;4.93;;;11.90;1.00;;;;;;5032820;28;20037;-70
2022/03/04 11:11:01;;;;;;;33.88;21.05;;;12.00;1.00;;;;;;5022362;28;20045;-70
2022/03/04 11:13:29;;;;;;;13.00;9.32;;;11.80;1.00;;;;;;5033739;28;20030;-70
2022/03/04 11:15:55;;;;;;;17.58;11.75;;;11.80;1.00;;;;;;5033821;28;20040;-70
2022/03/04 11:18:22;;;;;;;12.27;9.55;;;11.50;1.00;;;;;;5032275;28;20041;-71
2022/03/04 11:20:53;;;;;;;15.57;10.75;;;11.50;1.00;;;;;;5032739;28;20103;-71
2022/03/04 11:23:21;;;;;;;8.98;6.97;;;11.60;1.00;;;;;;5033759;28;20037;-70
2022/03/04 11:26:18;;;;;;;9.82;7.85;;;11.50;1.00;;;;;;5033246;28;20046;-71
2022/03/04 11:28:49;;;;;;;8.50;5.93;;;11.60;1.00;;;;;;5031827;28;20060;-70
2022/03/04 11:31:20;;;;;;;11.27;7.63;;;11.70;1.00;;;;;;5033424;28;20103;-70
2022/03/04 11:33:54;;;;;;;3.97;3.67;;;11.60;1.00;;;;;;5032739;28;20060;-70
2022/03/04 11:36:32;;;;;;;7.35;5.28;;;11.60;1.00;;;;;;5034418;28;20045;-71
2022/03/04 11:39:10;;;;;;;6.30;5.05;;;11.60;1.00;;;;;;5043248;28;20040;-70
2022/03/04 11:41:47;;;;;;;18.65;10.35;;;11.70;1.00;;;;;;5032422;28;20046;-70
2022/03/04 11:44:22;;;;;;;46.38;23.38;;;11.60;1.00;;;;;;5033186;28;20045;-70
2022/03/04 11:47:00;;;;;;;60.60;33.70;;;11.60;1.00;;;;;;5033325;28;20037;-70
2022/03/04 11:49:34;;;;;;;100.28;55.75;;;11.60;1.00;;;;;;5032795;28;20060;-70
2022/03/04 11:52:11;;;;;;;21.13;13.85;;;11.60;1.00;;;;;;5032214;28;20076;-70
2022/03/04 11:54:42;;;;;;;45.78;29.83;;;11.60;1.00;;;;;;5032517;28;20037;-71
2022/03/04 11:57:35;;;;;;;34.05;23.25;;;11.60;1.00;;;;;;5042612;28;20033;-71
2022/03/04 12:00:10;;;;;;;25.98;19.88;;;11.50;1.00;;;;;;5046074;28;20071;-71
2022/03/04 12:02:43;;;;;;;8.63;7.28;;;11.50;1.00;;;;;;5035342;28;20068;-71
2022/03/04 12:07:42;;;;;;;54.53;31.58;;;11.40;1.00;;;;;;5047156;28;20036;-71
2022/03/04 12:10:10;;;;;;;21.80;15.18;;;11.40;1.00;;;;;;5046345;28;20040;-71
2022/03/04 12:12:36;;;;;;;40.25;22.95;;;11.60;1.00;;;;;;5046302;28;20045;-71
2022/03/04 12:15:17;;;;;;;108.60;63.15;;;11.50;1.00;;;;;;5043408;28;20040;-71
2022/03/04 12:18:06;;;;;;;123.35;76.07;;;11.60;1.00;;;;;;5042812;28;20050;-71
2022/03/04 12:20:40;;;;;;;23.85;16.40;;;11.50;1.00;;;;;;5038938;28;20049;-70
2022/03/04 12:23:14;;;;;;;14.50;11.20;;;11.30;1.00;;;;;;5037135;28;20049;-71
2022/03/04 12:25:56;;;;;;;28.27;22.27;;;11.10;1.00;;;;;;5051141;28;20045;-71
2022/03/04 12:28:33;;;;;;;13.73;10.98;;;11.10;1.00;;;;;;5036394;28;20435;-71
2022/03/04 12:31:04;;;;;;;25.90;21.20;;;11.20;1.00;;;;;;5025270;28;20091;-70
2022/03/04 12:33:36;;;;;;;8.10;7.20;;;11.30;1.00;;;;;;5024948;28;20056;-70
2022/03/04 12:36:05;;;;;;;9.52;7.38;;;11.20;1.00;;;;;;5036983;28;20034;-70
2022/03/04 12:38:51;;;;;;;12.18;9.05;;;11.10;1.00;;;;;;5031619;28;20049;-70
2022/03/04 12:41:24;;;;;;;10.00;8.10;;;11.00;1.00;;;;;;5031021;28;20057;-71
2022/03/04 12:43:58;;;;;;;16.23;11.07;;;11.00;1.00;;;;;;5030996;28;20041;-71
2022/03/04 12:46:34;;;;;;;12.55;9.07;;;11.00;1.00;;;;;;5019511;28;20041;-71
2022/03/04 12:49:00;;;;;;;21.63;11.88;;;11.20;1.00;;;;;;5031349;28;20041;-71
2022/03/04 12:51:29;;;;;;;7.65;5.43;;;11.20;1.00;;;;;;5031665;28;20075;-70
2022/03/04 12:53:58;;;;;;;6.65;5.45;;;11.10;1.00;;;;;;5030815;28;20041;-70
2022/03/04 12:56:24;;;;;;;8.73;7.05;;;11.00;1.00;;;;;;5031999;28;20500;-69
2022/03/04 12:58:52;;;;;;;11.25;8.38;;;10.90;1.00;;;;;;5031669;28;20136;-70
2022/03/04 13:01:21;;;;;;;6.72;4.93;;;11.00;1.00;;;;;;5034210;28;20041;-70